AirNav   Everest Fuels
 
 1063 users online  

XS14 Weese International Airport
Greenville, Texas, USA

GOING TO GREENVILLE?


FAA INFORMATION EFFECTIVE 26 JANUARY 2023

Location

FAA Identifier: XS14
Lat/Long: 32-58-10.0000N 096-04-14.0000W
32-58.166667N 096-04.233333W
32.9694444,-96.0705556
(estimated)
Elevation: 487 ft. / 148 m (estimated)
Variation: 06E (1990)
From city: 8 miles S of GREENVILLE, TX
Time zone: UTC -6 (UTC -5 during Daylight Saving Time)
Zip code: 75474

Airport Operations

Airport use: Private use. Permission required prior to landing
Activation date: 03/1994
Control tower: no
ARTCC: FORT WORTH CENTER
FSS: FORT WORTH FLIGHT SERVICE STATION
Attendance: UNATNDD
Segmented circle: no

Airport Communications

WX AWOS-3 at GVT (6 nm N): 133.425 (903-455-7703)
WX AWOS-3PT at F46 (19 nm W): 121.25 (972-772-6699)
WX ASOS at TRL (19 nm SW): 119.275 (972-551-1334)

Nearby radio navigation aids

VOR radial/distance  VOR name  Freq  Var
SLRr235/29.9SULPHUR SPRINGS VOR/DME109.0008E
BYPr160/35.1BONHAM VORTAC114.6006E

 
NDB name  Hdg/Dist  Freq  Var  ID
MESQUITE064/25.024803EPQF .--. --.- ..-.

Airport Services

Runway Information

Runway 18/36

Dimensions: 5300 x 100 ft. / 1615 x 30 m
Surface: turf
RUNWAY 18  RUNWAY 36
Traffic pattern: leftleft

Airport Ownership and Management from official FAA records

Ownership: Privately-owned
Owner: CHARLES K WEESE
1347 RANCHO RD.
QUINLAN, TX 75474
Phone 214-728-7500
Manager: CHARLES K WEESE
1347 RANCHO RD.
QUINLAN, TX 75474
Phone 214-728-7500

Airport Operational Statistics

Aircraft based on the field: 1
Single engine airplanes: 1
    
Aircraft operations: 12/year
100% local general aviation

Additional Remarks

FOR CD CTC FORT WORTH ARTCC AT 817-858-7584.
PPR.

Instrument Procedures

There are no published instrument procedures at XS14.

Some nearby airports with instrument procedures:

KGVT - Majors Airport (6 nm N)
7F3 - Caddo Mills Municipal Airport (10 nm NW)
F46 - Ralph M Hall/Rockwall Municipal Airport (19 nm W)
KTRL - Terrell Municipal Airport (19 nm SW)
2F7 - Commerce Municipal Airport (21 nm NE)
 
Loc | Ops | Rwys | IFR | FBO | Links
Com | Nav | Svcs | Stats | Notes

City of Fort Worth
 
Area around XS14 (Weese International Airport)
 
Road maps at: MapQuest Bing Google
 
Aerial photo
No photo
 
Sectional chart

 
Airport distance calculator
Flying to Weese International Airport? Find the distance to fly.

From to XS14

Sunrise and sunset
Times for 08-Feb-2023
 Local
(UTC-6)
 Zulu
(UTC)
Morning civil twilight06:5012:50
Sunrise07:1513:15
Sunset18:0200:02
Evening civil twilight18:2800:28

Current date and time
Zulu (UTC)  09-Feb-2023 01:44:42
Local (UTC-6)  08-Feb-2023 19:44:42
 
METAR
KGVT 
6nm N 
090135Z AUTO 28013G22KT 10SM OVC020 07/04 A3002 RMK AO2 TSNO T00660035
KTRL 
18nm SW 
090053Z AUTO 28012KT 10SM OVC018 08/04 A3002 RMK AO2 SLP164 T00780044
KF46 
19nm W 
090135Z AUTO 28011KT 10SM OVC016 07/05 A3002 RMK AO2 T00700047
TAF
KDAL 
40nm W 
082104Z 0821/0918 28015KT P6SM VCSH BKN015 FM090100 29016KT P6SM BKN035 FM090400 24005KT P6SM SKC TEMPO 0911/0915 3SM BR
KDFW 
48nm W 
082104Z 0821/0924 28017KT P6SM VCSH BKN015 FM090100 28017KT P6SM BKN035 FM090400 24005KT P6SM SKC TEMPO 0911/0915 3SM BR FM091900 30010KT P6SM SCT250
KTYR 
50nm SE 
081740Z 0818/0918 24012G17KT 4SM BR OVC003 FM082100 26014G24KT 4SM -RA BR OVC007 FM090000 27016G25KT 5SM BR OVC009 FM090200 26013G20KT P6SM BKN015 FM090400 22007KT 6SM BR SCT250 FM091500 20008KT P6SM SKC
NOTAMs
Click for the latest NOTAMs
NOTAMs are issued by the DoD/FAA and will open in a separate window not controlled by AirNav.

 

 
 

Would you like to see your business listed on this page?

 If your business provides an interesting product or service to pilots, flight crews, aircraft, or users of the Weese International Airport, you should consider listing it here.  To start the listing process, click on the button below
 
Add a business
 

Other Pages about Weese International Airport

Update a link
 
Copyright © AirNav, LLC. All rights reserved. Privacy Policy  Contact